createdAt,value
2018-11-20T00:02:45.115Z,69.27
2018-11-20T00:12:45.124Z,70.24
2018-11-20T00:22:45.334Z,70.63
2018-11-20T00:32:45.047Z,71.02
2018-11-20T00:42:45.090Z,70.93
2018-11-20T00:52:45.107Z,70.72
2018-11-20T01:02:44.984Z,70.69
2018-11-20T01:12:45.045Z,70.50
2018-11-20T01:22:45.111Z,70.43
2018-11-20T01:32:45.159Z,70.50
2018-11-20T01:42:45.009Z,70.36
2018-11-20T01:52:45.099Z,70.72
2018-11-20T02:02:45.057Z,70.65
2018-11-20T02:12:45.132Z,70.92
2018-11-20T02:22:45.045Z,70.81
2018-11-20T02:32:45.051Z,71.92
2018-11-20T02:42:45.116Z,72.10
2018-11-20T02:52:45.121Z,71.62
2018-11-20T03:02:45.975Z,71.56
2018-11-20T03:12:45.077Z,71.18
2018-11-20T03:22:45.041Z,71.77
2018-11-20T03:32:45.270Z,71.25
2018-11-20T03:42:45.150Z,71.02
2018-11-20T03:52:45.727Z,71.03
2018-11-20T04:02:45.020Z,71.27
2018-11-20T04:12:45.029Z,71.93
2018-11-20T04:22:45.542Z,71.79
2018-11-20T04:32:45.083Z,72.23
2018-11-20T04:42:44.998Z,72.37
2018-11-20T04:52:45.069Z,72.60
2018-11-20T05:02:45.938Z,73.40
2018-11-20T05:12:45.004Z,73.35
2018-11-20T05:22:45.031Z,72.81
2018-11-20T05:32:45.018Z,72.32
2018-11-20T05:42:45.052Z,71.66
2018-11-20T05:52:44.997Z,71.47
2018-11-20T06:02:45.003Z,71.59
2018-11-20T06:12:45.143Z,71.05
2018-11-20T06:22:45.006Z,71.14
2018-11-20T06:32:44.995Z,71.14
2018-11-20T06:42:45.019Z,71.53
2018-11-20T06:52:45.033Z,71.83
2018-11-20T07:02:45.166Z,71.84
2018-11-20T07:12:45.371Z,71.49
2018-11-20T07:22:45.095Z,71.11
2018-11-20T07:32:45.684Z,71.29
2018-11-20T07:42:45.597Z,71.88
2018-11-20T07:52:46.031Z,71.15
2018-11-20T08:02:45.048Z,71.31
2018-11-20T08:12:45.086Z,70.70
2018-11-20T08:22:45.896Z,71.05
2018-11-20T08:32:44.960Z,71.19
2018-11-20T08:42:45.180Z,71.02
2018-11-20T08:52:45.062Z,70.78
2018-11-20T09:02:45.422Z,70.99
2018-11-20T09:12:45.120Z,71.12
2018-11-20T09:22:45.009Z,71.10
2018-11-20T09:32:44.955Z,71.47
2018-11-20T09:42:45.896Z,70.91
2018-11-20T09:52:45.008Z,70.75
2018-11-20T10:02:45.141Z,70.83
2018-11-20T10:12:45.836Z,70.34
2018-11-20T10:22:44.909Z,70.80
2018-11-20T10:32:45.016Z,70.76
2018-11-20T10:42:45.120Z,70.53
2018-11-20T10:52:45.042Z,70.89
2018-11-20T11:02:45.159Z,70.69
2018-11-20T11:12:46.721Z,70.61
2018-11-20T11:22:44.864Z,70.22
2018-11-20T11:32:45.976Z,69.78
2018-11-20T11:42:45.114Z,69.19
2018-11-20T11:52:45.101Z,68.90
2018-11-20T12:12:45.059Z,67.82
2018-11-20T12:22:45.098Z,66.12
2018-11-20T12:32:47.152Z,65.70
2018-11-20T12:42:45.106Z,64.26
2018-11-20T12:52:45.040Z,63.68
2018-11-20T13:02:45.220Z,65.24
2018-11-20T13:12:45.021Z,64.78
2018-11-20T13:22:45.021Z,65.14
2018-11-20T13:32:45.105Z,65.19
2018-11-20T13:42:45.770Z,65.78
2018-11-20T13:52:44.879Z,66.50
2018-11-20T14:02:45.717Z,66.60
2018-11-20T14:12:45.059Z,67.15
2018-11-20T14:22:45.067Z,67.22
2018-11-20T14:32:45.875Z,68.05
2018-11-20T14:42:44.922Z,68.08
2018-11-20T14:52:45.004Z,68.46
2018-11-20T15:02:44.870Z,68.85
2018-11-20T15:12:45.024Z,69.51
2018-11-20T15:22:44.872Z,69.65
2018-11-20T15:32:44.992Z,70.53
2018-11-20T15:42:44.955Z,70.69
2018-11-20T15:52:45.496Z,70.96
2018-11-20T16:02:44.885Z,71.71
2018-11-20T16:12:44.913Z,72.28
2018-11-20T16:22:48.561Z,72.65
2018-11-20T16:32:44.857Z,73.02
2018-11-20T16:42:44.876Z,72.95
2018-11-20T16:52:44.966Z,73.04
2018-11-20T17:02:44.868Z,72.73
2018-11-20T17:12:44.902Z,73.02
2018-11-20T17:22:44.893Z,73.63
2018-11-20T17:32:44.782Z,74.54
2018-11-20T17:42:45.584Z,75.58
2018-11-20T17:52:44.942Z,76.20
2018-11-20T18:02:44.882Z,77.42
2018-11-20T18:12:44.934Z,77.73
2018-11-20T18:22:44.861Z,78.27
2018-11-20T18:32:44.912Z,79.05
2018-11-20T18:42:44.880Z,79.86
2018-11-20T18:52:44.899Z,81.35
2018-11-20T19:02:44.922Z,82.39
2018-11-20T19:12:45.749Z,82.70
2018-11-20T19:22:44.832Z,83.74
2018-11-20T19:32:44.884Z,84.20
2018-11-20T19:42:44.878Z,83.90
2018-11-20T19:52:45.844Z,83.25
2018-11-20T20:02:44.949Z,83.35
2018-11-20T20:12:45.008Z,83.09
2018-11-20T20:22:44.815Z,83.13
2018-11-20T20:32:44.832Z,83.48
2018-11-20T20:42:44.769Z,83.31
2018-11-20T20:52:44.785Z,84.14
2018-11-20T21:02:44.869Z,84.86
2018-11-20T21:12:45.542Z,84.78
2018-11-20T21:22:45.811Z,85.04
2018-11-20T21:32:44.833Z,85.05
2018-11-20T21:42:44.827Z,85.64
2018-11-20T21:52:44.837Z,85.82
2018-11-20T22:02:45.628Z,86.13
2018-11-20T22:12:44.837Z,86.46
2018-11-20T22:22:45.893Z,86.67
2018-11-20T22:32:44.760Z,87.37
2018-11-20T22:42:44.891Z,86.90
2018-11-20T22:52:44.804Z,86.20
2018-11-20T23:02:44.870Z,84.75
2018-11-20T23:12:44.748Z,83.62
2018-11-20T23:22:44.904Z,82.77
2018-11-20T23:32:44.804Z,80.41
2018-11-20T23:42:44.817Z,78.95
2018-11-20T23:52:44.842Z,78.39
